createdAt,value
2023-05-20T00:02:12.261Z,101125.92
2023-05-20T00:05:18.043Z,101128.53
2023-05-20T00:08:23.977Z,101125.97
2023-05-20T00:11:31.456Z,101128.81
2023-05-20T00:14:37.297Z,101121.23
2023-05-20T00:17:43.213Z,101120.25
2023-05-20T00:20:50.493Z,101115.31
2023-05-20T00:23:56.942Z,101117.41
2023-05-20T00:27:02.826Z,101114.14
2023-05-20T00:30:09.822Z,101112.64
2023-05-20T00:33:15.654Z,101124.41
2023-05-20T00:36:21.923Z,101120.97
2023-05-20T00:39:28.695Z,101113.07
2023-05-20T00:42:39.535Z,101113.98
2023-05-20T00:45:46.333Z,101121.28
2023-05-20T00:48:58.174Z,101117.02
2023-05-20T00:52:04.795Z,101121.36
2023-05-20T00:55:11.643Z,101114.64
2023-05-20T00:58:16.199Z,101116.94
2023-05-20T01:01:22.223Z,101113.50
2023-05-20T01:04:28.706Z,101116.27
2023-05-20T01:07:34.507Z,101112.31
2023-05-20T01:10:39.321Z,101110.30
2023-05-20T01:13:51.196Z,101108.95
2023-05-20T01:16:56.754Z,101104.87
2023-05-20T01:20:03.645Z,101105.91
2023-05-20T01:23:11.399Z,101104.59
2023-05-20T01:26:19.902Z,101106.02
2023-05-20T01:29:26.560Z,101104.70
2023-05-20T01:32:38.990Z,101105.61
2023-05-20T01:35:44.304Z,101111.64
2023-05-20T01:38:50.636Z,101107.38
2023-05-20T01:41:57.421Z,101103.95
2023-05-20T01:45:02.838Z,101100.34
2023-05-20T01:48:09.755Z,101099.87
2023-05-20T01:51:15.735Z,101107.28
2023-05-20T01:54:22.383Z,101100.58
2023-05-20T01:57:28.491Z,101100.64
2023-05-20T02:00:35.774Z,101099.30
2023-05-20T02:03:42.521Z,101100.20
2023-05-20T02:06:48.995Z,101105.78
2023-05-20T02:09:56.208Z,101107.92
2023-05-20T02:13:02.362Z,101110.72
2023-05-20T02:16:07.433Z,101110.78
2023-05-20T02:19:13.072Z,101114.24
2023-05-20T02:22:19.025Z,101116.70
2023-05-20T02:25:24.897Z,101117.22
2023-05-20T02:28:24.626Z,101124.31
2023-05-20T02:31:32.138Z,101115.00
2023-05-20T02:34:37.760Z,101124.02
2023-05-20T02:37:42.473Z,101123.66
2023-05-20T02:40:48.982Z,101120.58
2023-05-20T02:43:54.767Z,101126.09
2023-05-20T02:47:00.134Z,101122.83
2023-05-20T02:50:05.897Z,101130.91
2023-05-20T02:53:11.366Z,101132.23
2023-05-20T02:56:17.993Z,101129.64
2023-05-20T02:59:23.590Z,101130.86
2023-05-20T03:02:30.166Z,101132.69
2023-05-20T03:05:37.300Z,101126.09
2023-05-20T03:08:42.555Z,101129.33
2023-05-20T03:11:48.948Z,101125.68
2023-05-20T03:14:54.910Z,101125.42
2023-05-20T03:18:01.290Z,101123.47
2023-05-20T03:21:07.693Z,101123.75
2023-05-20T03:24:13.170Z,101118.84
2023-05-20T03:27:19.664Z,101121.89
2023-05-20T03:30:28.433Z,101121.98
2023-05-20T03:33:34.314Z,101130.88
2023-05-20T03:36:39.799Z,101130.45
2023-05-20T03:39:44.751Z,101126.04
2023-05-20T03:42:52.451Z,101119.22
2023-05-20T03:45:58.734Z,101126.41
2023-05-20T03:49:03.963Z,101120.09
2023-05-20T03:52:10.734Z,101127.24
2023-05-20T03:55:16.208Z,101131.07
2023-05-20T03:58:21.589Z,101130.44
2023-05-20T04:01:31.490Z,101128.73
2023-05-20T04:04:38.415Z,101134.80
2023-05-20T04:07:45.782Z,101127.36
2023-05-20T04:10:52.114Z,101128.73
2023-05-20T04:14:11.340Z,101127.00
2023-05-20T04:17:21.310Z,101135.16
2023-05-20T04:20:27.671Z,101136.86
2023-05-20T04:23:37.002Z,101138.42
2023-05-20T04:26:42.772Z,101142.42
2023-05-20T04:29:50.709Z,101145.53
2023-05-20T04:32:59.782Z,101149.33
2023-05-20T04:36:06.310Z,101148.76
2023-05-20T04:39:12.724Z,101147.88
2023-05-20T04:42:21.220Z,101142.80
2023-05-20T04:45:30.327Z,101140.52
2023-05-20T04:48:35.833Z,101141.00
2023-05-20T04:51:42.559Z,101136.11
2023-05-20T04:54:50.234Z,101137.88
2023-05-20T04:57:57.605Z,101141.98
2023-05-20T05:01:03.891Z,101144.23
2023-05-20T05:04:09.387Z,101141.06
2023-05-20T05:07:16.958Z,101137.89
2023-05-20T05:10:23.012Z,101141.33
2023-05-20T05:13:28.917Z,101145.08
2023-05-20T05:16:35.271Z,101141.89
2023-05-20T05:19:41.254Z,101140.83
2023-05-20T05:22:48.696Z,101137.02
2023-05-20T05:25:55.027Z,101144.37
2023-05-20T05:29:00.413Z,101144.50
2023-05-20T05:32:05.478Z,101146.11
2023-05-20T05:35:10.640Z,101146.63
2023-05-20T05:38:16.727Z,101149.52
2023-05-20T05:41:22.234Z,101155.69
2023-05-20T05:44:27.498Z,101147.87
2023-05-20T05:47:35.110Z,101144.03
2023-05-20T05:50:42.301Z,101148.58
2023-05-20T05:53:48.889Z,101151.77
2023-05-20T05:56:54.539Z,101153.87
2023-05-20T06:00:01.822Z,101147.80
2023-05-20T06:03:19.247Z,101149.99
2023-05-20T06:06:26.544Z,101156.39
2023-05-20T06:09:32.512Z,101150.16
2023-05-20T06:12:38.919Z,101151.00
2023-05-20T06:15:46.046Z,101144.32
2023-05-20T06:18:52.698Z,101148.84
2023-05-20T06:21:59.670Z,101140.58
2023-05-20T06:25:08.369Z,101145.09
2023-05-20T06:28:15.617Z,101152.13
2023-05-20T06:31:22.048Z,101149.41
2023-05-20T06:34:30.805Z,101151.99
2023-05-20T06:37:36.672Z,101159.09
2023-05-20T06:40:43.594Z,101154.86
2023-05-20T06:43:52.591Z,101157.14
2023-05-20T06:47:15.862Z,101161.26
2023-05-20T06:50:24.445Z,101162.59
2023-05-20T06:53:30.701Z,101160.81
2023-05-20T06:56:37.874Z,101159.23
2023-05-20T06:59:44.577Z,101160.97
2023-05-20T07:02:53.334Z,101148.13
2023-05-20T07:06:00.681Z,101147.83
2023-05-20T07:09:07.405Z,101150.47
2023-05-20T07:12:15.371Z,101148.84
2023-05-20T07:15:22.982Z,101141.78
2023-05-20T07:18:29.335Z,101137.58
2023-05-20T07:21:35.176Z,101131.15
2023-05-20T07:24:57.771Z,101137.90
2023-05-20T07:28:05.909Z,101133.39
2023-05-20T07:31:12.826Z,101136.71
2023-05-20T07:34:19.442Z,101138.25
2023-05-20T07:37:26.208Z,101135.91
2023-05-20T07:40:33.848Z,101136.44
2023-05-20T07:43:41.517Z,101143.32
2023-05-20T07:46:49.450Z,101133.59
2023-05-20T07:49:55.855Z,101137.06
2023-05-20T07:53:03.103Z,101130.61
2023-05-20T07:56:10.188Z,101123.57
2023-05-20T07:59:16.959Z,101129.75
2023-05-20T08:02:24.074Z,101125.75
2023-05-20T08:05:30.491Z,101123.03
2023-05-20T08:08:41.675Z,101130.20
2023-05-20T08:11:49.160Z,101130.70
2023-05-20T08:14:54.420Z,101132.94
2023-05-20T08:18:02.021Z,101140.77
2023-05-20T08:21:09.247Z,101133.12
2023-05-20T08:24:15.680Z,101130.20
2023-05-20T08:27:22.100Z,101134.05
2023-05-20T08:30:27.929Z,101128.62
2023-05-20T08:33:34.342Z,101123.55
2023-05-20T08:36:40.292Z,101121.77
2023-05-20T08:39:46.956Z,101122.48
2023-05-20T08:43:02.018Z,101123.00
2023-05-20T08:46:09.656Z,101120.38
2023-05-20T08:49:14.879Z,101122.25
2023-05-20T08:52:20.678Z,101123.82
2023-05-20T08:55:33.657Z,101118.86
2023-05-20T08:58:43.182Z,101122.02
2023-05-20T09:01:51.676Z,101117.22
2023-05-20T09:05:00.793Z,101131.11
2023-05-20T09:08:06.817Z,101122.30
2023-05-20T09:11:12.960Z,101126.09
2023-05-20T09:14:20.086Z,101118.95
2023-05-20T09:17:27.644Z,101126.97
2023-05-20T09:20:32.195Z,101114.79
2023-05-20T09:23:37.639Z,101116.56
2023-05-20T09:26:43.272Z,101108.50
2023-05-20T09:29:51.226Z,101122.92
2023-05-20T09:32:58.511Z,101103.37
2023-05-20T09:36:05.983Z,101104.94
2023-05-20T09:39:14.926Z,101104.80
2023-05-20T09:42:42.684Z,101103.73
2023-05-20T09:45:49.473Z,101097.04
2023-05-20T09:48:57.197Z,101100.98
2023-05-20T09:52:04.767Z,101096.20
2023-05-20T09:55:03.085Z,101094.38
2023-05-20T09:58:12.449Z,101086.56
2023-05-20T10:01:20.820Z,101093.15
2023-05-20T10:04:26.655Z,101096.09
2023-05-20T10:08:05.088Z,101094.90
2023-05-20T10:11:22.092Z,101090.25
2023-05-20T10:14:55.899Z,101086.11
2023-05-20T10:18:31.624Z,101093.55
2023-05-20T10:21:38.627Z,101082.66
2023-05-20T10:24:53.781Z,101082.17
2023-05-20T10:28:00.912Z,101079.16
2023-05-20T10:31:07.430Z,101074.45
2023-05-20T10:34:14.896Z,101073.06
2023-05-20T10:37:16.014Z,101073.98
2023-05-20T10:40:23.613Z,101063.11
2023-05-20T10:43:37.096Z,101058.95
2023-05-20T10:49:51.198Z,101058.84
2023-05-20T10:52:56.318Z,101068.16
2023-05-20T10:56:07.569Z,101044.25
2023-05-20T10:59:15.277Z,101051.59
2023-05-20T11:02:21.308Z,101056.44
2023-05-20T11:05:27.871Z,101047.80
2023-05-20T11:08:33.838Z,101048.73
2023-05-20T11:11:38.577Z,101038.42
2023-05-20T11:14:47.213Z,101051.39
2023-05-20T11:17:56.250Z,101043.00
2023-05-20T11:21:02.175Z,101041.91
2023-05-20T11:24:07.546Z,101039.12
2023-05-20T11:27:13.025Z,101046.18
2023-05-20T11:30:19.989Z,101032.11
2023-05-20T11:33:28.009Z,101033.52
2023-05-20T11:36:35.786Z,101036.42
2023-05-20T11:39:47.249Z,101038.38
2023-05-20T11:42:53.804Z,101031.34
2023-05-20T11:46:00.991Z,101027.66
2023-05-20T11:49:09.236Z,101027.11
2023-05-20T11:52:15.748Z,101023.19
2023-05-20T11:55:28.768Z,101019.53
2023-05-20T11:58:41.295Z,101014.16
2023-05-20T12:01:51.805Z,101011.09
2023-05-20T12:04:58.053Z,101010.27
2023-05-20T12:08:06.412Z,101007.17
2023-05-20T12:11:12.562Z,101000.64
2023-05-20T12:14:21.020Z,100995.85
2023-05-20T12:17:27.403Z,100999.80
2023-05-20T12:20:36.293Z,100994.14
2023-05-20T12:23:44.182Z,100983.70
2023-05-20T12:26:50.755Z,100985.97
2023-05-20T12:29:57.620Z,100980.33
2023-05-20T12:33:04.792Z,100982.30
2023-05-20T12:36:11.716Z,100971.59
2023-05-20T12:39:17.843Z,100971.05
2023-05-20T12:42:24.762Z,100973.00
2023-05-20T12:45:29.823Z,100971.04
2023-05-20T12:48:36.840Z,100970.48
2023-05-20T12:51:44.916Z,100968.22
2023-05-20T12:54:50.868Z,100964.77
2023-05-20T12:57:57.944Z,100967.24
2023-05-20T13:01:04.734Z,100971.16
2023-05-20T13:04:10.772Z,100967.55
2023-05-20T13:07:18.066Z,100965.06
2023-05-20T13:10:25.643Z,100956.89
2023-05-20T13:13:32.192Z,100962.22
2023-05-20T13:16:39.511Z,100970.62
2023-05-20T13:19:45.876Z,100960.89
2023-05-20T13:22:52.525Z,100962.73
2023-05-20T13:26:01.413Z,100949.98
2023-05-20T13:29:07.642Z,100946.78
2023-05-20T13:32:14.480Z,100950.88
2023-05-20T13:35:24.285Z,100939.95
2023-05-20T13:38:30.696Z,100931.52
2023-05-20T13:41:37.583Z,100933.82
2023-05-20T13:44:45.365Z,100942.33
2023-05-20T13:47:51.265Z,100931.79
2023-05-20T13:50:58.537Z,100939.50
2023-05-20T13:54:04.036Z,100946.38
2023-05-20T13:57:12.371Z,100945.11
2023-05-20T14:00:18.957Z,100950.08
2023-05-20T14:03:24.410Z,100950.03
2023-05-20T14:06:33.138Z,100943.27
2023-05-20T14:09:39.084Z,100948.41
2023-05-20T14:12:45.613Z,100947.16
2023-05-20T14:15:53.183Z,100950.70
2023-05-20T14:19:01.179Z,100942.13
2023-05-20T14:22:07.946Z,100942.48
2023-05-20T14:25:14.230Z,100952.61
2023-05-20T14:28:20.874Z,100947.75
2023-05-20T14:31:27.276Z,100954.95
2023-05-20T14:34:32.635Z,100951.67
2023-05-20T14:37:37.934Z,100952.61
2023-05-20T14:40:43.942Z,100951.44
2023-05-20T14:43:50.375Z,100952.77
2023-05-20T14:46:56.650Z,100959.52
2023-05-20T14:50:05.610Z,100955.20
2023-05-20T14:53:10.773Z,100956.48
2023-05-20T14:56:18.269Z,100955.90
2023-05-20T14:59:23.612Z,100951.99
2023-05-20T15:02:31.462Z,100944.92
2023-05-20T15:05:36.532Z,100944.20
2023-05-20T15:08:43.135Z,100948.72
2023-05-20T15:11:49.722Z,100944.11
2023-05-20T15:14:56.866Z,100946.39
2023-05-20T15:18:03.388Z,100952.83
2023-05-20T15:21:09.966Z,100950.90
2023-05-20T15:24:14.991Z,100958.76
2023-05-20T15:27:20.790Z,100959.58
2023-05-20T15:30:29.368Z,100969.73
2023-05-20T15:33:35.811Z,100968.64
2023-05-20T15:36:45.004Z,100971.88
2023-05-20T15:39:54.147Z,100973.66
2023-05-20T15:43:00.049Z,100976.22
2023-05-20T15:46:06.372Z,100970.60
2023-05-20T15:49:11.650Z,100971.61
2023-05-20T15:52:18.112Z,100971.77
2023-05-20T15:55:25.035Z,100972.05
2023-05-20T15:58:31.567Z,100977.72
2023-05-20T16:01:39.673Z,100987.82
2023-05-20T16:04:45.258Z,100984.10
2023-05-20T16:07:53.026Z,100998.20
2023-05-20T16:10:59.220Z,100991.55
2023-05-20T16:14:05.584Z,100995.67
2023-05-20T16:17:11.999Z,100999.75
2023-05-20T16:20:19.575Z,101001.97
2023-05-20T16:23:27.082Z,101002.79
2023-05-20T16:26:33.733Z,101007.22
2023-05-20T16:29:39.829Z,101008.78
2023-05-20T16:32:45.494Z,101008.05
2023-05-20T16:35:52.185Z,101011.53
2023-05-20T16:38:58.935Z,101018.08
2023-05-20T16:45:10.312Z,101024.38
2023-05-20T16:48:16.300Z,101026.41
2023-05-20T16:51:20.632Z,101028.41
2023-05-20T16:54:27.898Z,101032.36
2023-05-20T16:57:33.196Z,101039.34
2023-05-20T17:00:39.546Z,101032.45
2023-05-20T17:03:49.040Z,101033.04
2023-05-20T17:07:00.128Z,101029.64
2023-05-20T17:10:06.459Z,101026.94
2023-05-20T17:13:13.408Z,101022.91
2023-05-20T17:16:19.507Z,101026.56
2023-05-20T17:19:26.126Z,101017.92
2023-05-20T17:22:32.835Z,101019.53
2023-05-20T17:25:39.305Z,101022.23
2023-05-20T17:28:44.867Z,101029.73
2023-05-20T17:31:51.365Z,101033.48
2023-05-20T17:34:58.230Z,101038.31
2023-05-20T17:38:05.003Z,101035.55
2023-05-20T17:41:11.095Z,101035.42
2023-05-20T17:44:17.836Z,101036.78
2023-05-20T17:47:23.859Z,101036.98
2023-05-20T17:50:30.222Z,101031.75
2023-05-20T17:53:36.204Z,101040.41
2023-05-20T17:56:41.502Z,101039.81
2023-05-20T17:59:49.877Z,101050.67
2023-05-20T18:02:56.461Z,101052.23
2023-05-20T18:06:04.722Z,101054.59
2023-05-20T18:09:12.602Z,101062.23
2023-05-20T18:12:18.278Z,101060.76
2023-05-20T18:15:26.106Z,101062.12
2023-05-20T18:18:31.045Z,101060.72
2023-05-20T18:21:38.202Z,101066.30
2023-05-20T18:24:45.056Z,101053.72
2023-05-20T18:27:51.660Z,101059.34
2023-05-20T18:30:57.408Z,101060.95
2023-05-20T18:34:02.745Z,101058.16
2023-05-20T18:37:10.111Z,101062.88
2023-05-20T18:40:16.797Z,101063.16
2023-05-20T18:43:22.989Z,101058.95
2023-05-20T18:46:28.752Z,101066.19
2023-05-20T18:49:34.295Z,101062.59
2023-05-20T18:52:39.935Z,101068.75
2023-05-20T18:55:45.432Z,101064.31
2023-05-20T18:58:50.859Z,101067.66
2023-05-20T19:01:58.981Z,101059.88
2023-05-20T19:05:07.240Z,101060.47
2023-05-20T19:08:14.248Z,101064.68
2023-05-20T19:11:19.950Z,101073.05
2023-05-20T19:14:25.944Z,101066.09
2023-05-20T19:17:34.444Z,101072.54
2023-05-20T19:20:41.902Z,101076.73
2023-05-20T19:23:49.509Z,101073.98
2023-05-20T19:26:55.146Z,101072.52
2023-05-20T19:30:00.564Z,101083.34
2023-05-20T19:33:07.365Z,101073.95
2023-05-20T19:36:12.501Z,101082.08
2023-05-20T19:39:18.222Z,101075.14
2023-05-20T19:42:23.983Z,101075.80
2023-05-20T19:45:30.293Z,101079.57
2023-05-20T19:48:36.349Z,101077.97
2023-05-20T19:51:41.377Z,101082.36
2023-05-20T19:54:49.024Z,101086.09
2023-05-20T19:57:58.484Z,101079.12
2023-05-20T20:01:04.228Z,101079.78
2023-05-20T20:04:10.211Z,101089.80
2023-05-20T20:07:16.046Z,101084.59
2023-05-20T20:10:22.238Z,101087.45
2023-05-20T20:13:27.101Z,101085.97
2023-05-20T20:16:34.547Z,101085.53
2023-05-20T20:19:40.268Z,101085.01
2023-05-20T20:22:45.207Z,101081.16
2023-05-20T20:25:54.616Z,101082.22
2023-05-20T20:29:01.178Z,101081.69
2023-05-20T20:32:07.154Z,101079.11
2023-05-20T20:35:12.713Z,101083.26
2023-05-20T20:38:19.238Z,101086.02
2023-05-20T20:41:25.039Z,101083.36
2023-05-20T20:44:36.420Z,101094.43
2023-05-20T20:47:44.448Z,101091.08
2023-05-20T20:50:50.786Z,101082.22
2023-05-20T20:53:56.141Z,101091.13
2023-05-20T20:57:04.255Z,101088.99
2023-05-20T21:00:11.892Z,101083.77
2023-05-20T21:03:20.744Z,101071.37
2023-05-20T21:06:28.579Z,101084.16
2023-05-20T21:09:34.452Z,101073.70
2023-05-20T21:12:41.055Z,101078.66
2023-05-20T21:15:46.671Z,101077.58
2023-05-20T21:18:52.920Z,101080.63
2023-05-20T21:21:59.279Z,101080.08
2023-05-20T21:25:05.360Z,101084.54
2023-05-20T21:28:10.697Z,101093.12
2023-05-20T21:31:16.764Z,101088.72
2023-05-20T21:34:22.847Z,101090.20
2023-05-20T21:37:29.935Z,101086.46
2023-05-20T21:40:35.899Z,101096.02
2023-05-20T21:43:43.138Z,101091.09
2023-05-20T21:46:50.361Z,101080.08
2023-05-20T21:49:55.668Z,101082.80
2023-05-20T21:53:03.081Z,101088.80
2023-05-20T21:56:08.352Z,101077.89
2023-05-20T21:59:15.810Z,101094.32
2023-05-20T22:02:22.127Z,101076.59
2023-05-20T22:05:28.561Z,101080.17
2023-05-20T22:08:37.776Z,101078.62
2023-05-20T22:11:44.869Z,101074.92
2023-05-20T22:14:50.823Z,101069.11
2023-05-20T22:17:57.756Z,101064.89
2023-05-20T22:21:05.517Z,101071.08
2023-05-20T22:24:10.426Z,101074.44
2023-05-20T22:27:16.200Z,101067.97
2023-05-20T22:30:23.842Z,101071.50
2023-05-20T22:33:31.471Z,101071.77
2023-05-20T22:36:38.850Z,101070.98
2023-05-20T22:39:44.366Z,101066.42
2023-05-20T22:42:50.650Z,101066.69
2023-05-20T22:45:56.966Z,101063.66
2023-05-20T22:49:04.844Z,101062.38
2023-05-20T22:52:10.721Z,101061.91
2023-05-20T22:55:16.560Z,101060.25
2023-05-20T22:58:24.739Z,101066.36
2023-05-20T23:01:31.373Z,101063.71
2023-05-20T23:04:37.067Z,101066.38
2023-05-20T23:07:43.358Z,101066.64
2023-05-20T23:10:48.736Z,101065.84
2023-05-20T23:13:55.002Z,101068.52
2023-05-20T23:17:02.016Z,101065.66
2023-05-20T23:20:08.352Z,101067.63
2023-05-20T23:23:15.437Z,101065.44
2023-05-20T23:26:22.148Z,101063.89
2023-05-20T23:29:27.799Z,101073.23
2023-05-20T23:32:32.939Z,101075.67
2023-05-20T23:35:39.771Z,101062.73
2023-05-20T23:38:46.860Z,101058.80
2023-05-20T23:41:55.478Z,101055.75
2023-05-20T23:45:01.633Z,101058.50
2023-05-20T23:48:08.033Z,101054.69
2023-05-20T23:51:17.205Z,101051.73
2023-05-20T23:54:22.862Z,101040.51
2023-05-20T23:57:29.336Z,101044.64
